Time;durP1;ratioP1;P1;durP2;ratioP2;P2;SDS_P1;SDS_P2;PMS_P1;PMS_P2;Temp;Humidity;BMP_temperature;BMP_pressure;BME280_temperature;BME280_humidity;BME280_pressure;Samples;Min_cycle;Max_cycle;Signal;HPM_P1;HPM_P2
2022/04/07 08:17:02;;;;;;;1.63;1.52;;;14.10;99.90;;;;;;5264436;27;20462;-74
2022/04/07 08:19:37;;;;;;;0.80;0.80;;;14.30;99.90;;;;;;5266198;28;20435;-73
2022/04/07 08:22:09;;;;;;;;;;;14.30;99.90;;;;;;5240451;28;20559;-73
2022/04/07 08:25:37;;;;;;;0.70;0.70;;;14.20;99.90;;;;;;5275207;27;20103;-74
2022/04/07 08:29:04;;;;;;;0.80;0.80;;;14.30;99.90;;;;;;5256273;28;20051;-73
2022/04/07 08:32:32;;;;;;;0.70;0.70;;;14.60;99.90;;;;;;5259389;28;20036;-72
2022/04/07 08:35:57;;;;;;;0.95;0.93;;;14.60;99.90;;;;;;5253804;28;20028;-73
2022/04/07 08:39:21;;;;;;;0.80;0.80;;;14.60;99.90;;;;;;5258813;28;20240;-74
2022/04/07 08:42:49;;;;;;;0.60;0.60;;;14.50;99.90;;;;;;5248149;28;20267;-73
2022/04/07 08:46:17;;;;;;;0.80;0.80;;;14.50;99.90;;;;;;5257784;28;20042;-72
2022/04/07 08:49:52;;;;;;;0.70;0.70;;;14.70;99.90;;;;;;5255777;28;20221;-73
2022/04/07 08:53:18;;;;;;;0.70;0.70;;;14.50;99.90;;;;;;5253540;28;20028;-73
2022/04/07 08:56:42;;;;;;;0.70;0.70;;;14.90;99.90;;;;;;5250394;28;20036;-72
2022/04/07 09:00:12;;;;;;;0.80;0.80;;;14.70;99.90;;;;;;5255639;28;20043;-73
2022/04/07 09:03:36;;;;;;;0.52;0.52;;;14.50;99.90;;;;;;5255652;28;20036;-72
2022/04/07 09:07:01;;;;;;;0.70;0.70;;;14.50;99.90;;;;;;5241669;28;20044;-73
2022/04/07 09:10:28;;;;;;;0.70;0.70;;;14.50;99.90;;;;;;5213640;28;20045;-73
2022/04/07 09:13:56;;;;;;;0.90;0.90;;;14.70;99.90;;;;;;5214458;28;20028;-73
2022/04/07 09:17:26;;;;;;;0.80;0.80;;;14.90;99.90;;;;;;5213327;28;20033;-72
2022/04/07 09:20:52;;;;;;;0.73;0.73;;;15.10;99.90;;;;;;5196525;28;20142;-72
2022/04/07 09:24:16;;;;;;;0.70;0.70;;;15.30;99.90;;;;;;5213593;28;20037;-73
2022/04/07 09:27:41;;;;;;;0.77;0.77;;;15.40;99.90;;;;;;5191174;28;20040;-73
2022/04/07 09:31:13;;;;;;;0.90;0.90;;;15.60;99.90;;;;;;5183072;28;20055;-72
2022/04/07 09:34:56;;;;;;;0.75;0.75;;;15.50;99.90;;;;;;5199019;28;20311;-74
2022/04/07 09:38:26;;;;;;;0.65;0.65;;;15.80;99.90;;;;;;5183136;28;20021;-72
2022/04/07 09:42:22;;;;;;;0.65;0.65;;;16.10;99.90;;;;;;5199094;28;20037;-72
2022/04/07 09:45:48;;;;;;;1.30;0.80;;;16.00;99.90;;;;;;5200027;28;20352;-74
2022/04/07 09:49:16;;;;;;;0.60;0.60;;;16.10;99.90;;;;;;5197118;28;20059;-72
2022/04/07 09:52:56;;;;;;;0.80;0.80;;;16.20;99.90;;;;;;5198215;28;20033;-72
2022/04/07 09:56:32;;;;;;;0.70;0.70;;;16.10;99.90;;;;;;5198518;28;20033;-74
2022/04/07 09:59:54;;;;;;;;;;;16.00;99.90;;;;;;5199639;28;20045;-72
2022/04/07 10:02:36;;;;;;;0.70;0.70;;;16.70;99.90;;;;;;5183526;28;19911;-72
2022/04/07 10:05:08;;;;;;;0.88;0.88;;;16.30;99.90;;;;;;5178344;28;20049;-72
2022/04/07 10:07:46;;;;;;;1.27;1.27;;;16.40;99.90;;;;;;5186807;28;20511;-72
2022/04/07 10:10:20;;;;;;;0.70;0.70;;;16.20;99.90;;;;;;5211211;28;20203;-72
2022/04/07 10:12:52;;;;;;;;;;;15.90;99.90;;;;;;5178788;28;20029;-74
2022/04/07 10:15:30;;;;;;;0.68;0.68;;;16.10;99.90;;;;;;5194891;28;19928;-73
2022/04/07 10:18:10;;;;;;;0.70;0.70;;;16.10;99.90;;;;;;5170133;28;20055;-74
2022/04/07 10:20:47;;;;;;;0.60;0.60;;;16.10;99.90;;;;;;5188615;28;20034;-73
2022/04/07 10:24:00;;;;;;;0.80;0.80;;;16.30;99.90;;;;;;5158416;28;20014;-75
2022/04/07 10:27:29;;;;;;;0.70;0.70;;;17.20;99.90;;;;;;5159522;28;20026;-74
2022/04/07 10:31:02;;;;;;;0.63;0.63;;;17.60;99.90;;;;;;5142076;28;20615;-72
2022/04/07 10:34:32;;;;;;;0.50;0.50;;;17.70;99.90;;;;;;5157590;28;20034;-75
2022/04/07 10:38:00;;;;;;;0.43;0.43;;;18.00;99.90;;;;;;5159814;28;20200;-73
2022/04/07 10:41:44;;;;;;;0.50;0.50;;;17.00;99.90;;;;;;5157849;28;20030;-73
2022/04/07 10:45:13;;;;;;;0.40;0.40;;;16.90;99.90;;;;;;5192804;28;20034;-72
2022/04/07 10:49:20;;;;;;;0.50;0.50;;;17.10;99.90;;;;;;5144493;28;20038;-73
2022/04/07 10:52:48;;;;;;;0.60;0.60;;;17.80;99.90;;;;;;5138402;28;20036;-73
2022/04/07 10:56:31;;;;;;;0.50;0.50;;;18.20;99.90;;;;;;5169615;28;20031;-73
2022/04/07 11:00:19;;;;;;;0.60;0.60;;;17.80;99.90;;;;;;5195083;28;20042;-74
2022/04/07 11:04:19;;;;;;;0.50;0.50;;;18.50;99.90;;;;;;5168742;28;20044;-73
2022/04/07 11:08:05;;;;;;;0.68;0.68;;;19.60;99.90;;;;;;5146540;28;20515;-73
2022/04/07 11:12:06;;;;;;;0.45;0.45;;;19.40;99.90;;;;;;5173974;28;20034;-73
2022/04/07 11:15:32;;;;;;;0.30;0.30;;;20.00;99.90;;;;;;5170142;28;20022;-73
2022/04/07 11:19:53;;;;;;;0.52;0.52;;;20.70;99.90;;;;;;5161584;28;20034;-73
2022/04/07 11:23:41;;;;;;;0.40;0.40;;;20.50;99.90;;;;;;5177942;28;20377;-73
2022/04/07 11:27:42;;;;;;;0.43;0.43;;;21.20;99.90;;;;;;5179357;28;20024;-73
2022/04/07 11:31:07;;;;;;;0.40;0.40;;;20.60;99.90;;;;;;5176795;28;20026;-74
2022/04/07 11:34:50;;;;;;;0.40;0.40;;;21.70;99.90;;;;;;5194261;28;20024;-74
2022/04/07 11:38:15;;;;;;;0.80;0.73;;;21.20;99.90;;;;;;5176015;28;20029;-72
2022/04/07 11:42:02;;;;;;;0.57;0.47;;;22.20;99.90;;;;;;5175900;28;20037;-74
2022/04/07 11:45:32;;;;;;;0.30;0.30;;;22.10;99.90;;;;;;5178077;28;20022;-73
2022/04/07 11:48:56;;;;;;;0.38;0.38;;;22.80;99.90;;;;;;5161236;28;20038;-75
2022/04/07 11:52:27;;;;;;;0.50;0.50;;;21.00;99.90;;;;;;5160362;28;20056;-75
2022/04/07 11:55:59;;;;;;;0.85;0.75;;;21.70;99.90;;;;;;5177267;28;20035;-74
2022/04/07 11:59:26;;;;;;;0.30;0.30;;;22.20;99.90;;;;;;5161210;28;20037;-73
2022/04/07 12:02:59;;;;;;;0.30;0.30;;;22.20;99.90;;;;;;5177239;28;20522;-75
2022/04/07 12:06:31;;;;;;;0.40;0.40;;;22.40;99.90;;;;;;5214786;28;20036;-74
2022/04/07 12:10:09;;;;;;;0.30;0.30;;;22.10;99.90;;;;;;5218712;28;20044;-73
2022/04/07 12:13:36;;;;;;;0.40;0.40;;;21.60;99.90;;;;;;5196861;28;20029;-75
2022/04/07 12:17:05;;;;;;;0.40;0.40;;;21.40;99.90;;;;;;5203567;28;20034;-73
2022/04/07 12:20:42;;;;;;;0.30;0.30;;;21.60;99.90;;;;;;5233512;28;20349;-73
2022/04/07 12:24:12;;;;;;;0.43;0.43;;;21.80;99.90;;;;;;5232351;28;20037;-73
2022/04/07 12:27:45;;;;;;;0.30;0.30;;;22.60;99.90;;;;;;5197450;28;20033;-74
2022/04/07 12:31:29;;;;;;;0.30;0.30;;;23.60;99.90;;;;;;5183394;28;20022;-74
2022/04/07 12:35:06;;;;;;;0.30;0.30;;;24.40;99.90;;;;;;5183259;28;20037;-74
2022/04/07 12:38:36;;;;;;;0.20;0.20;;;25.10;99.90;;;;;;5199292;28;20052;-74
2022/04/07 12:42:08;;;;;;;0.30;0.30;;;25.60;99.90;;;;;;5198595;28;20025;-73
2022/04/07 12:45:34;;;;;;;0.30;0.30;;;26.00;99.90;;;;;;5195960;28;20021;-73
2022/04/07 12:49:04;;;;;;;4.05;1.10;;;25.50;99.90;;;;;;5198891;28;20052;-74
2022/04/07 12:52:33;;;;;;;0.20;0.20;;;25.60;99.90;;;;;;5182143;28;20025;-73
2022/04/07 12:56:03;;;;;;;0.30;0.30;;;22.90;99.90;;;;;;5199084;28;20036;-73
2022/04/07 12:59:32;;;;;;;0.28;0.28;;;22.80;99.90;;;;;;5199162;28;20020;-74
2022/04/07 13:02:58;;;;;;;0.45;0.45;;;23.60;99.90;;;;;;5215285;28;20246;-74
2022/04/07 13:06:31;;;;;;;0.43;0.43;;;23.70;99.90;;;;;;5203411;28;20254;-73
2022/04/07 13:09:58;;;;;;;0.35;0.35;;;22.50;99.90;;;;;;5215964;28;20037;-73
2022/04/07 13:13:22;;;;;;;0.40;0.40;;;22.80;99.90;;;;;;5184897;28;20041;-73
2022/04/07 13:16:46;;;;;;;0.40;0.40;;;23.10;99.90;;;;;;5185264;28;20033;-73
2022/04/07 13:20:13;;;;;;;0.40;0.40;;;23.10;99.90;;;;;;5202687;28;20045;-74
2022/04/07 13:23:40;;;;;;;0.38;0.38;;;23.30;99.90;;;;;;5193724;28;20047;-75
2022/04/07 13:27:04;;;;;;;;;;;22.10;99.90;;;;;;5202157;28;20033;-73
2022/04/07 13:30:30;;;;;;;0.35;0.35;;;21.30;99.90;;;;;;5185081;28;19913;-75
2022/04/07 13:34:01;;;;;;;0.35;0.35;;;21.60;99.90;;;;;;5190419;28;20044;-73
2022/04/07 13:37:25;;;;;;;0.30;0.30;;;22.30;99.90;;;;;;5182044;28;20037;-74
2022/04/07 13:40:50;;;;;;;0.30;0.30;;;21.80;99.90;;;;;;5192062;28;20037;-74
2022/04/07 13:44:15;;;;;;;0.30;0.30;;;22.00;99.90;;;;;;5201278;28;20056;-73
2022/04/07 13:47:42;;;;;;;0.40;0.40;;;21.80;99.90;;;;;;5202204;28;20040;-74
2022/04/07 13:51:09;;;;;;;0.30;0.30;;;21.20;99.90;;;;;;5201134;28;20536;-73
2022/04/07 13:54:36;;;;;;;0.30;0.30;;;21.00;99.90;;;;;;5201132;28;20032;-74
2022/04/07 13:58:03;;;;;;;0.50;0.50;;;20.70;99.90;;;;;;5185385;28;20028;-75
2022/04/07 14:01:30;;;;;;;1.73;1.45;;;21.00;99.90;;;;;;5202288;28;20239;-75
2022/04/07 14:04:54;;;;;;;0.32;0.32;;;21.10;99.90;;;;;;5201547;28;20033;-75
2022/04/07 14:08:21;;;;;;;0.50;0.50;;;21.10;99.90;;;;;;5206968;28;20371;-73
2022/04/07 14:11:46;;;;;;;0.65;0.65;;;21.60;99.90;;;;;;5196848;28;20036;-74
2022/04/07 14:15:10;;;;;;;1.27;1.25;;;21.20;99.90;;;;;;5201443;28;20040;-73
2022/04/07 14:18:38;;;;;;;0.45;0.45;;;21.10;99.90;;;;;;5184734;28;20525;-74
2022/04/07 14:22:07;;;;;;;0.50;0.50;;;21.50;99.90;;;;;;5223942;28;20026;-74
2022/04/07 14:25:34;;;;;;;0.30;0.30;;;21.60;99.90;;;;;;5201910;28;20441;-75
2022/04/07 14:28:59;;;;;;;0.30;0.30;;;22.40;99.90;;;;;;5200655;28;20029;-73
2022/04/07 14:32:26;;;;;;;0.43;0.43;;;22.10;99.90;;;;;;5199778;28;20021;-73
2022/04/07 14:35:53;;;;;;;0.47;0.47;;;21.90;99.90;;;;;;5200982;28;20274;-74
2022/04/07 14:39:18;;;;;;;0.30;0.30;;;22.10;99.90;;;;;;5199052;28;20025;-73
2022/04/07 14:42:44;;;;;;;0.68;0.52;;;21.70;99.90;;;;;;5193837;28;20055;-72
2022/04/07 14:46:13;;;;;;;0.40;0.40;;;21.30;99.90;;;;;;5174099;28;20557;-74
2022/04/07 14:49:38;;;;;;;0.55;0.55;;;21.30;99.90;;;;;;5193276;28;20024;-73
2022/04/07 14:53:08;;;;;;;0.30;0.30;;;21.40;99.90;;;;;;5194316;28;20032;-73
2022/04/07 14:56:32;;;;;;;0.47;0.47;;;21.50;99.90;;;;;;5201087;28;20044;-72
2022/04/07 15:00:00;;;;;;;0.30;0.30;;;21.50;99.90;;;;;;5187182;28;20054;-75
2022/04/07 15:03:27;;;;;;;0.30;0.30;;;21.00;99.90;;;;;;5192068;28;20037;-74
2022/04/07 15:06:51;;;;;;;0.32;0.32;;;20.90;99.90;;;;;;5183873;28;20036;-73
2022/04/07 15:10:16;;;;;;;0.40;0.40;;;20.80;99.90;;;;;;5191803;28;20367;-74
2022/04/07 15:13:43;;;;;;;0.60;0.60;;;20.90;99.90;;;;;;5172705;28;20075;-73
2022/04/07 15:17:12;;;;;;;0.70;0.70;;;20.60;99.90;;;;;;5188078;28;20047;-73
2022/04/07 15:20:40;;;;;;;0.40;0.40;;;20.50;99.90;;;;;;5190932;28;20039;-72
2022/04/07 15:24:10;;;;;;;0.50;0.50;;;20.20;99.90;;;;;;5187421;28;20224;-73
2022/04/07 15:27:41;;;;;;;0.50;0.50;;;19.90;99.90;;;;;;5174872;28;20033;-74
2022/04/07 15:31:10;;;;;;;0.50;0.50;;;19.80;99.90;;;;;;5188243;28;20026;-73
2022/04/07 15:34:34;;;;;;;1.13;1.13;;;19.60;99.90;;;;;;5189428;28;20026;-74
2022/04/07 15:38:00;;;;;;;0.60;0.60;;;19.90;99.90;;;;;;5192394;28;20382;-74
2022/04/07 15:41:25;;;;;;;0.40;0.40;;;19.90;99.90;;;;;;5186274;28;20099;-74
2022/04/07 15:44:51;;;;;;;0.30;0.30;;;19.80;99.90;;;;;;5189531;28;20126;-72
2022/04/07 15:48:20;;;;;;;;;;;19.60;99.90;;;;;;5189489;28;20025;-74
2022/04/07 15:51:44;;;;;;;0.50;0.50;;;19.50;99.90;;;;;;5187682;28;20238;-72
2022/04/07 15:55:11;;;;;;;0.40;0.40;;;19.40;99.90;;;;;;5174792;28;20037;-72
2022/04/07 15:58:35;;;;;;;0.40;0.40;;;19.50;99.90;;;;;;5193762;28;20041;-74
2022/04/07 16:02:00;;;;;;;0.50;0.50;;;19.40;99.90;;;;;;5190806;28;20034;-74
2022/04/07 16:05:25;;;;;;;0.70;0.70;;;19.30;99.90;;;;;;5220850;28;20099;-73
2022/04/07 16:08:49;;;;;;;0.60;0.60;;;19.20;99.90;;;;;;5207293;28;20693;-73
2022/04/07 16:12:24;;;;;;;0.50;0.50;;;19.20;99.90;;;;;;5190493;28;20037;-75
2022/04/07 16:15:49;;;;;;;0.40;0.40;;;19.20;99.90;;;;;;5207674;28;20045;-72
2022/04/07 16:19:16;;;;;;;0.32;0.32;;;19.20;99.90;;;;;;5178384;28;20043;-72
2022/04/07 16:22:44;;;;;;;0.40;0.40;;;19.10;99.90;;;;;;5190584;28;20214;-72
2022/04/07 16:26:11;;;;;;;0.70;0.70;;;18.90;99.90;;;;;;5182698;28;20031;-72
2022/04/07 16:29:35;;;;;;;0.40;0.40;;;18.80;99.90;;;;;;5169627;28;20474;-71
2022/04/07 16:33:04;;;;;;;0.50;0.50;;;18.60;99.90;;;;;;5192027;28;20043;-72
2022/04/07 16:36:28;;;;;;;1.33;1.27;;;18.50;99.90;;;;;;5212096;28;20036;-73
2022/04/07 16:39:53;;;;;;;0.50;0.50;;;18.30;99.90;;;;;;5194881;28;20021;-72
2022/04/07 16:43:17;;;;;;;0.50;0.50;;;18.20;99.90;;;;;;5192222;28;20049;-73
2022/04/07 16:46:44;;;;;;;0.68;0.68;;;18.10;99.90;;;;;;5193962;28;20036;-72
2022/04/07 16:50:11;;;;;;;0.95;0.95;;;18.10;99.90;;;;;;5208146;28;20039;-73
2022/04/07 16:53:35;;;;;;;1.85;1.75;;;18.00;99.90;;;;;;5197570;28;20335;-74
2022/04/07 16:57:03;;;;;;;1.80;0.98;;;18.00;99.90;;;;;;5193449;28;20055;-72
2022/04/07 17:00:27;;;;;;;0.52;0.52;;;17.90;99.90;;;;;;5171904;28;20403;-75
2022/04/07 17:03:51;;;;;;;4.07;1.38;;;17.80;99.90;;;;;;5196249;28;20045;-72
2022/04/07 17:07:15;;;;;;;0.88;0.88;;;17.70;99.90;;;;;;5213346;28;20037;-72
2022/04/07 17:10:41;;;;;;;1.73;0.80;;;17.70;99.90;;;;;;5198248;28;20366;-72
2022/04/07 17:13:19;;;;;;;0.47;0.47;;;17.60;99.90;;;;;;5191472;28;20031;-72
2022/04/07 17:16:43;;;;;;;0.70;0.70;;;17.40;99.90;;;;;;5222231;28;20041;-72
2022/04/07 17:19:54;;;;;;;0.50;0.50;;;17.20;99.90;;;;;;5193169;28;20206;-72
2022/04/07 17:22:25;;;;;;;0.77;0.77;;;17.00;99.90;;;;;;5203275;28;20029;-73
2022/04/07 17:24:59;;;;;;;0.50;0.50;;;17.00;99.90;;;;;;5190497;28;20519;-72
2022/04/07 17:27:31;;;;;;;0.55;0.55;;;17.00;99.90;;;;;;5189258;28;20546;-73
2022/04/07 17:30:05;;;;;;;0.40;0.40;;;16.90;99.90;;;;;;5188342;28;20041;-74
2022/04/07 17:32:39;;;;;;;0.47;0.47;;;16.90;99.90;;;;;;5223798;28;20336;-73
2022/04/07 17:35:15;;;;;;;0.60;0.60;;;16.90;99.90;;;;;;5223772;28;20219;-72
2022/04/07 17:37:47;;;;;;;0.70;0.70;;;17.00;99.90;;;;;;5210791;28;20041;-72
2022/04/07 17:40:19;;;;;;;0.50;0.50;;;16.90;99.90;;;;;;5189594;28;20010;-72
2022/04/07 17:42:56;;;;;;;0.80;0.80;;;17.00;99.90;;;;;;5192868;28;20041;-73
2022/04/07 17:45:32;;;;;;;0.50;0.50;;;16.90;99.90;;;;;;5175540;28;20526;-72
2022/04/07 17:48:04;;;;;;;2.55;1.13;;;16.80;99.90;;;;;;5203919;28;20244;-73
2022/04/07 17:50:35;;;;;;;0.77;0.77;;;16.80;99.90;;;;;;5184484;28;20311;-73
2022/04/07 17:53:09;;;;;;;0.52;0.52;;;16.70;99.90;;;;;;5221236;28;20336;-72
2022/04/07 17:55:41;;;;;;;0.63;0.63;;;16.70;99.90;;;;;;5190562;28;20052;-73
2022/04/07 17:58:13;;;;;;;0.43;0.43;;;16.70;99.90;;;;;;5201443;28;20036;-75
2022/04/07 18:00:45;;;;;;;0.73;0.73;;;16.50;99.90;;;;;;5201631;28;20029;-74
2022/04/07 18:03:17;;;;;;;0.52;0.52;;;16.20;99.90;;;;;;5204910;28;20045;-76
2022/04/07 18:05:51;;;;;;;0.70;0.70;;;15.90;99.90;;;;;;5188595;28;20041;-74
2022/04/07 18:08:26;;;;;;;0.60;0.60;;;15.80;99.90;;;;;;5191749;28;20064;-74
2022/04/07 18:10:57;;;;;;;0.57;0.57;;;15.60;99.90;;;;;;5206580;28;20047;-74
2022/04/07 18:13:31;;;;;;;0.60;0.60;;;15.60;99.90;;;;;;5188669;28;20033;-74
2022/04/07 18:16:09;;;;;;;0.50;0.50;;;15.50;99.90;;;;;;5205179;28;20045;-74
2022/04/07 18:18:43;;;;;;;0.73;0.73;;;15.50;99.90;;;;;;5207399;28;20029;-74
2022/04/07 18:21:26;;;;;;;0.52;0.52;;;15.40;99.90;;;;;;5205403;28;20009;-73
2022/04/07 18:24:00;;;;;;;0.70;0.70;;;15.40;99.90;;;;;;5206483;28;20035;-75
2022/04/07 18:26:37;;;;;;;0.80;0.80;;;15.30;99.90;;;;;;5202771;28;20009;-73
2022/04/07 18:29:10;;;;;;;0.50;0.50;;;15.40;99.90;;;;;;5204096;28;20041;-75
2022/04/07 18:31:41;;;;;;;0.50;0.50;;;15.30;99.90;;;;;;5238278;28;20211;-74
2022/04/07 18:34:15;;;;;;;0.60;0.60;;;15.30;99.90;;;;;;5237961;28;20041;-73
2022/04/07 18:36:49;;;;;;;0.60;0.60;;;15.20;99.90;;;;;;5236975;28;20025;-75
2022/04/07 18:39:21;;;;;;;0.70;0.70;;;15.20;99.90;;;;;;5206038;28;20385;-74
2022/04/07 18:41:56;;;;;;;0.55;0.55;;;15.10;99.90;;;;;;5187372;28;20056;-75
2022/04/07 18:44:30;;;;;;;0.50;0.50;;;15.10;99.90;;;;;;5205779;28;20042;-74
2022/04/07 18:47:05;;;;;;;0.68;0.68;;;15.10;99.90;;;;;;5189348;28;20021;-75
2022/04/07 18:49:41;;;;;;;0.60;0.60;;;15.10;99.90;;;;;;5189479;28;20026;-74
2022/04/07 18:52:13;;;;;;;0.50;0.50;;;15.40;99.90;;;;;;5205225;28;20029;-73
2022/04/07 18:54:47;;;;;;;0.60;0.60;;;15.40;99.90;;;;;;5207286;28;20345;-73
2022/04/07 18:57:21;;;;;;;0.55;0.55;;;15.40;99.90;;;;;;5202508;28;20049;-73
2022/04/07 18:59:55;;;;;;;0.60;0.60;;;15.40;99.90;;;;;;5201889;28;20013;-74
2022/04/07 19:02:27;;;;;;;0.50;0.50;;;15.40;99.90;;;;;;5202309;28;20238;-73
2022/04/07 19:05:14;;;;;;;0.60;0.60;;;15.40;99.90;;;;;;5202175;28;20469;-73
2022/04/07 19:07:46;;;;;;;0.95;0.95;;;15.30;99.90;;;;;;5205739;28;20014;-73
2022/04/07 19:10:17;;;;;;;0.75;0.75;;;15.30;99.90;;;;;;5199146;28;20033;-74
2022/04/07 19:12:50;;;;;;;0.52;0.52;;;15.30;99.90;;;;;;5197838;28;20029;-74
2022/04/07 19:15:21;;;;;;;0.70;0.70;;;15.30;99.90;;;;;;5216392;28;20076;-75
2022/04/07 19:17:53;;;;;;;0.50;0.50;;;15.30;99.90;;;;;;5200115;28;20841;-74
2022/04/07 19:20:27;;;;;;;0.90;0.90;;;15.30;99.90;;;;;;5184930;28;20022;-75
2022/04/07 19:23:01;;;;;;;1.30;1.20;;;15.30;99.90;;;;;;5181540;28;20036;-74
2022/04/07 19:25:37;;;;;;;0.50;0.50;;;15.30;99.90;;;;;;5197894;28;20055;-74
2022/04/07 19:28:10;;;;;;;0.50;0.50;;;15.10;99.90;;;;;;5197733;28;20013;-74
2022/04/07 19:30:43;;;;;;;0.50;0.50;;;15.00;99.90;;;;;;5198863;28;20076;-74
2022/04/07 19:33:14;;;;;;;0.47;0.47;;;14.90;99.90;;;;;;5182269;28;20037;-76
2022/04/07 19:35:46;;;;;;;0.60;0.60;;;14.80;99.90;;;;;;5180579;28;20243;-74
2022/04/07 19:38:18;;;;;;;0.70;0.70;;;14.70;99.90;;;;;;5180816;28;20033;-75
2022/04/07 19:40:52;;;;;;;0.60;0.60;;;14.60;99.90;;;;;;5181744;28;20038;-74
2022/04/07 19:43:27;;;;;;;0.60;0.60;;;14.50;99.90;;;;;;5198494;28;20374;-76
2022/04/07 19:46:00;;;;;;;0.63;0.63;;;14.40;99.90;;;;;;5197371;28;20013;-75
2022/04/07 19:48:34;;;;;;;0.70;0.70;;;14.30;99.90;;;;;;5196531;28;20060;-75
2022/04/07 19:51:06;;;;;;;0.55;0.55;;;14.20;99.90;;;;;;5195996;28;20033;-73
2022/04/07 19:54:32;;;;;;;0.60;0.60;;;14.20;99.90;;;;;;5198580;28;20032;-73
2022/04/07 19:57:59;;;;;;;0.70;0.70;;;14.10;99.90;;;;;;5198524;28;20033;-74
2022/04/07 20:01:23;;;;;;;0.70;0.70;;;13.90;99.90;;;;;;5199629;28;20033;-75
2022/04/07 20:04:52;;;;;;;0.68;0.68;;;13.80;99.90;;;;;;5197102;28;20360;-74
2022/04/07 20:08:19;;;;;;;0.70;0.70;;;13.70;99.90;;;;;;5151422;28;20046;-73
2022/04/07 20:10:52;;;;;;;0.60;0.60;;;13.70;99.90;;;;;;5158419;28;20034;-74
2022/04/07 20:13:26;;;;;;;0.70;0.70;;;13.60;99.90;;;;;;5164668;28;20473;-73
2022/04/07 20:16:00;;;;;;;0.70;0.70;;;13.50;99.90;;;;;;5200970;28;20028;-75
2022/04/07 20:18:33;;;;;;;1.00;1.00;;;13.60;99.90;;;;;;5195792;28;20033;-74
2022/04/07 20:21:07;;;;;;;0.70;0.70;;;13.60;99.90;;;;;;5203433;28;20035;-73
2022/04/07 20:23:47;;;;;;;0.50;0.50;;;13.50;99.90;;;;;;5186546;28;20041;-76
2022/04/07 20:26:20;;;;;;;0.60;0.60;;;13.40;99.90;;;;;;5216531;28;20029;-74
2022/04/07 20:28:54;;;;;;;0.67;0.67;;;13.40;99.90;;;;;;5187004;28;20569;-75
2022/04/07 20:31:26;;;;;;;0.80;0.80;;;13.30;99.90;;;;;;5200926;28;20271;-75
2022/04/07 20:34:07;;;;;;;0.70;0.70;;;13.20;99.90;;;;;;5201690;28;20029;-74
2022/04/07 20:37:32;;;;;;;0.80;0.80;;;13.20;99.90;;;;;;5181158;28;20376;-75
2022/04/07 20:40:57;;;;;;;0.70;0.70;;;13.10;99.90;;;;;;5181926;28;20039;-75
2022/04/07 20:43:46;;;;;;;0.70;0.70;;;13.00;99.90;;;;;;5183492;28;20499;-73
2022/04/07 20:46:23;;;;;;;0.70;0.70;;;12.90;99.90;;;;;;5204828;28;20045;-74
2022/04/07 20:48:55;;;;;;;0.60;0.60;;;13.00;99.90;;;;;;5209259;28;20032;-76
2022/04/07 20:51:33;;;;;;;0.60;0.60;;;12.90;99.90;;;;;;5169030;28;20587;-74
2022/04/07 20:55:00;;;;;;;0.82;0.82;;;13.00;99.90;;;;;;5186073;28;20035;-75
2022/04/07 20:58:25;;;;;;;0.70;0.70;;;13.20;99.90;;;;;;5217082;28;20017;-75
2022/04/07 21:01:50;;;;;;;1.33;1.23;;;13.30;99.90;;;;;;5217641;28;20373;-73
2022/04/07 21:05:14;;;;;;;0.60;0.60;;;13.40;99.90;;;;;;5160908;28;20326;-73
2022/04/07 21:08:45;;;;;;;0.60;0.60;;;13.60;99.90;;;;;;5197402;28;20026;-75
2022/04/07 21:12:11;;;;;;;0.70;0.70;;;13.80;99.90;;;;;;5180432;28;20033;-74
2022/04/07 21:15:34;;;;;;;0.80;0.80;;;13.70;99.90;;;;;;5198211;28;20033;-74
2022/04/07 21:18:40;;;;;;;0.60;0.60;;;13.60;99.90;;;;;;5180251;28;20029;-74
2022/04/07 21:22:04;;;;;;;0.60;0.60;;;13.60;99.90;;;;;;5176072;28;20014;-75
2022/04/07 21:25:29;;;;;;;0.68;0.68;;;13.50;99.90;;;;;;5201682;28;20538;-74
2022/04/07 21:28:53;;;;;;;0.82;0.82;;;13.50;99.90;;;;;;5189441;28;20041;-75
2022/04/07 21:32:23;;;;;;;0.80;0.80;;;13.40;99.90;;;;;;5190644;28;20025;-76
2022/04/07 21:35:50;;;;;;;1.05;1.05;;;13.30;99.90;;;;;;5173965;28;20029;-75
2022/04/07 21:38:27;;;;;;;0.80;0.80;;;13.20;99.90;;;;;;5197353;28;20043;-74
2022/04/07 21:41:00;;;;;;;0.85;0.85;;;13.00;99.90;;;;;;5189073;28;20039;-74
2022/04/07 21:43:37;;;;;;;0.70;0.70;;;12.90;99.90;;;;;;5205776;28;20051;-74
2022/04/07 21:46:11;;;;;;;0.90;0.90;;;13.00;99.90;;;;;;5205247;28;20016;-74
2022/04/07 21:48:50;;;;;;;1.35;1.35;;;13.10;99.90;;;;;;5191872;28;20029;-75
2022/04/07 21:51:24;;;;;;;0.73;0.73;;;13.40;99.90;;;;;;5193991;28;20037;-74
2022/04/07 21:54:04;;;;;;;1.08;1.08;;;14.20;99.90;;;;;;5222363;28;20031;-73
2022/04/07 21:56:35;;;;;;;0.50;0.50;;;14.50;99.90;;;;;;5189163;28;20035;-74
2022/04/07 21:59:10;;;;;;;0.70;0.70;;;14.60;99.90;;;;;;5223089;28;20009;-74
2022/04/07 22:02:34;;;;;;;0.60;0.60;;;14.60;99.90;;;;;;5204567;28;20025;-73
2022/04/07 22:06:01;;;;;;;0.80;0.80;;;14.50;99.90;;;;;;5194105;28;20053;-75
2022/04/07 22:09:30;;;;;;;0.80;0.80;;;14.30;99.90;;;;;;5205901;28;20024;-73
2022/04/07 22:12:56;;;;;;;0.65;0.65;;;14.20;99.90;;;;;;5204752;28;20040;-76
2022/04/07 22:16:22;;;;;;;6.03;2.45;;;14.10;99.90;;;;;;5204418;28;20041;-75
2022/04/07 22:19:49;;;;;;;0.80;0.80;;;14.10;99.90;;;;;;5202862;28;20181;-73
2022/04/07 22:23:15;;;;;;;0.70;0.70;;;14.10;99.90;;;;;;5204894;28;20035;-74
2022/04/07 22:26:43;;;;;;;0.93;0.93;;;14.00;99.90;;;;;;5211346;28;20033;-74
2022/04/07 22:30:15;;;;;;;0.60;0.60;;;14.10;99.90;;;;;;5185494;28;20043;-74
2022/04/07 22:33:44;;;;;;;0.60;0.60;;;13.90;99.90;;;;;;5220653;28;20033;-74
2022/04/07 22:37:08;;;;;;;0.80;0.80;;;13.80;99.90;;;;;;5222555;28;20037;-76
2022/04/07 22:39:42;;;;;;;0.77;0.77;;;13.60;99.90;;;;;;5203984;28;20025;-75
2022/04/07 22:42:16;;;;;;;0.68;0.68;;;13.50;99.90;;;;;;5204319;28;20020;-74
2022/04/07 22:45:40;;;;;;;;;;;13.40;99.90;;;;;;5208524;28;20040;-75
2022/04/07 22:49:07;;;;;;;0.70;0.70;;;13.30;99.90;;;;;;5202385;28;20291;-72
2022/04/07 22:52:32;;;;;;;0.80;0.80;;;13.20;99.90;;;;;;5202512;28;20017;-74
2022/04/07 22:55:57;;;;;;;1.05;1.05;;;13.20;99.90;;;;;;5201025;28;20020;-74
2022/04/07 22:59:21;;;;;;;0.70;0.70;;;13.20;99.90;;;;;;5201478;28;20024;-74
2022/04/07 23:02:47;;;;;;;0.73;0.73;;;13.40;99.90;;;;;;5227323;28;20027;-73
2022/04/07 23:06:16;;;;;;;0.70;0.70;;;13.40;99.90;;;;;;5197313;28;20508;-74
2022/04/07 23:09:40;;;;;;;0.60;0.60;;;13.30;99.90;;;;;;5224528;28;20587;-73
2022/04/07 23:13:08;;;;;;;0.80;0.80;;;13.40;99.90;;;;;;5223813;28;20025;-74
2022/04/07 23:16:35;;;;;;;0.80;0.80;;;13.40;99.90;;;;;;5217638;28;20028;-75
2022/04/07 23:20:08;;;;;;;0.50;0.50;;;13.40;99.90;;;;;;5180791;28;20025;-73
2022/04/07 23:23:34;;;;;;;0.80;0.80;;;13.30;99.90;;;;;;5185365;28;20035;-74
2022/04/07 23:27:01;;;;;;;0.63;0.63;;;13.20;99.90;;;;;;5218526;28;20234;-74
2022/04/07 23:30:30;;;;;;;0.60;0.60;;;13.10;99.90;;;;;;5200191;28;20270;-74
2022/04/07 23:33:56;;;;;;;0.55;0.55;;;13.10;99.90;;;;;;5218558;28;20036;-73
2022/04/07 23:37:23;;;;;;;0.50;0.50;;;13.10;99.90;;;;;;5219483;28;20031;-74
2022/04/07 23:40:47;;;;;;;0.70;0.70;;;13.10;99.90;;;;;;5186001;28;20064;-73
2022/04/07 23:43:25;;;;;;;0.60;0.60;;;13.00;99.90;;;;;;5202125;28;20027;-74
2022/04/07 23:46:49;;;;;;;0.40;0.40;;;13.10;99.90;;;;;;5201156;28;20023;-73
2022/04/07 23:50:19;;;;;;;1.23;1.23;;;13.10;99.90;;;;;;5211812;28;20035;-74
2022/04/07 23:53:44;;;;;;;0.70;0.70;;;13.10;99.90;;;;;;5222521;28;20028;-73
2022/04/07 23:57:10;;;;;;;0.80;0.80;;;13.00;99.90;;;;;;5204810;28;20042;-73
